sensor_id;sensor_type;location;lat;lon;timestamp;P1;durP1;ratioP1;P2;durP2;ratioP2
78120;SDS011;67585;44.802;10.332;2024-03-08T00:02:23;3.60;;;1.52;;
78120;SDS011;67585;44.802;10.332;2024-03-08T00:04:48;3.00;;;1.00;;
78120;SDS011;67585;44.802;10.332;2024-03-08T00:07:14;2.78;;;0.88;;
78120;SDS011;67585;44.802;10.332;2024-03-08T00:09:39;5.00;;;1.33;;
78120;SDS011;67585;44.802;10.332;2024-03-08T00:12:05;3.75;;;1.02;;
78120;SDS011;67585;44.802;10.332;2024-03-08T00:14:31;12.40;;;1.10;;
78120;SDS011;67585;44.802;10.332;2024-03-08T00:16:56;4.35;;;1.33;;
78120;SDS011;67585;44.802;10.332;2024-03-08T00:19:22;4.38;;;0.85;;
78120;SDS011;67585;44.802;10.332;2024-03-08T00:21:47;3.88;;;1.00;;
78120;SDS011;67585;44.802;10.332;2024-03-08T00:24:12;3.80;;;1.63;;
78120;SDS011;67585;44.802;10.332;2024-03-08T00:26:38;2.25;;;0.35;;
78120;SDS011;67585;44.802;10.332;2024-03-08T00:29:03;3.50;;;0.38;;
78120;SDS011;67585;44.802;10.332;2024-03-08T00:31:29;2.00;;;0.88;;
78120;SDS011;67585;44.802;10.332;2024-03-08T00:33:56;3.88;;;0.50;;
78120;SDS011;67585;44.802;10.332;2024-03-08T00:36:22;2.60;;;0.73;;
78120;SDS011;67585;44.802;10.332;2024-03-08T00:38:48;4.18;;;0.52;;
78120;SDS011;67585;44.802;10.332;2024-03-08T00:41:13;5.03;;;1.15;;
78120;SDS011;67585;44.802;10.332;2024-03-08T00:43:39;4.85;;;1.00;;
78120;SDS011;67585;44.802;10.332;2024-03-08T00:46:04;6.45;;;1.75;;
78120;SDS011;67585;44.802;10.332;2024-03-08T00:48:29;5.28;;;2.22;;
78120;SDS011;67585;44.802;10.332;2024-03-08T00:50:56;6.28;;;2.97;;
78120;SDS011;67585;44.802;10.332;2024-03-08T00:53:21;6.85;;;2.70;;
78120;SDS011;67585;44.802;10.332;2024-03-08T00:55:47;4.55;;;1.35;;
78120;SDS011;67585;44.802;10.332;2024-03-08T00:58:13;9.13;;;3.10;;
78120;SDS011;67585;44.802;10.332;2024-03-08T01:00:38;6.78;;;2.42;;
78120;SDS011;67585;44.802;10.332;2024-03-08T01:03:04;6.70;;;2.97;;
78120;SDS011;67585;44.802;10.332;2024-03-08T01:05:30;9.70;;;2.42;;
78120;SDS011;67585;44.802;10.332;2024-03-08T01:07:55;10.88;;;3.58;;
78120;SDS011;67585;44.802;10.332;2024-03-08T01:10:20;11.85;;;3.33;;
78120;SDS011;67585;44.802;10.332;2024-03-08T01:12:46;8.93;;;3.85;;
78120;SDS011;67585;44.802;10.332;2024-03-08T01:15:12;9.70;;;4.22;;
78120;SDS011;67585;44.802;10.332;2024-03-08T01:17:37;10.93;;;5.13;;
78120;SDS011;67585;44.802;10.332;2024-03-08T01:20:03;9.73;;;4.70;;
78120;SDS011;67585;44.802;10.332;2024-03-08T01:22:29;13.85;;;6.03;;
78120;SDS011;67585;44.802;10.332;2024-03-08T01:24:55;12.48;;;3.67;;
78120;SDS011;67585;44.802;10.332;2024-03-08T01:27:21;17.33;;;5.43;;
78120;SDS011;67585;44.802;10.332;2024-03-08T01:29:47;13.77;;;4.85;;
78120;SDS011;67585;44.802;10.332;2024-03-08T01:32:12;12.93;;;5.95;;
78120;SDS011;67585;44.802;10.332;2024-03-08T01:34:38;17.50;;;4.68;;
78120;SDS011;67585;44.802;10.332;2024-03-08T01:37:03;11.48;;;4.90;;
78120;SDS011;67585;44.802;10.332;2024-03-08T01:39:29;16.05;;;5.75;;
78120;SDS011;67585;44.802;10.332;2024-03-08T01:41:55;14.88;;;5.68;;
78120;SDS011;67585;44.802;10.332;2024-03-08T01:44:20;21.35;;;7.22;;
78120;SDS011;67585;44.802;10.332;2024-03-08T01:46:46;13.35;;;5.05;;
78120;SDS011;67585;44.802;10.332;2024-03-08T01:49:14;14.27;;;5.45;;
78120;SDS011;67585;44.802;10.332;2024-03-08T01:51:43;16.35;;;7.20;;
78120;SDS011;67585;44.802;10.332;2024-03-08T01:54:08;15.63;;;4.90;;
78120;SDS011;67585;44.802;10.332;2024-03-08T01:56:36;18.02;;;4.63;;
78120;SDS011;67585;44.802;10.332;2024-03-08T01:59:03;17.90;;;5.95;;
78120;SDS011;67585;44.802;10.332;2024-03-08T02:01:31;22.98;;;5.55;;
78120;SDS011;67585;44.802;10.332;2024-03-08T02:03:58;14.85;;;6.22;;
78120;SDS011;67585;44.802;10.332;2024-03-08T02:06:23;17.17;;;4.55;;
78120;SDS011;67585;44.802;10.332;2024-03-08T02:08:49;14.02;;;5.15;;
78120;SDS011;67585;44.802;10.332;2024-03-08T02:11:14;19.33;;;6.78;;
78120;SDS011;67585;44.802;10.332;2024-03-08T02:13:41;18.48;;;7.07;;
78120;SDS011;67585;44.802;10.332;2024-03-08T02:16:06;18.20;;;6.57;;
78120;SDS011;67585;44.802;10.332;2024-03-08T02:18:33;15.85;;;6.25;;
78120;SDS011;67585;44.802;10.332;2024-03-08T02:21:00;15.02;;;5.38;;
78120;SDS011;67585;44.802;10.332;2024-03-08T02:23:27;16.20;;;6.13;;
78120;SDS011;67585;44.802;10.332;2024-03-08T02:25:53;18.02;;;7.18;;
78120;SDS011;67585;44.802;10.332;2024-03-08T02:28:21;14.18;;;5.85;;
78120;SDS011;67585;44.802;10.332;2024-03-08T02:30:47;17.80;;;5.72;;
78120;SDS011;67585;44.802;10.332;2024-03-08T02:33:16;20.17;;;7.43;;
78120;SDS011;67585;44.802;10.332;2024-03-08T02:35:43;17.95;;;7.07;;
78120;SDS011;67585;44.802;10.332;2024-03-08T02:38:12;22.38;;;6.30;;
78120;SDS011;67585;44.802;10.332;2024-03-08T02:43:12;16.48;;;5.47;;
78120;SDS011;67585;44.802;10.332;2024-03-08T02:45:38;17.05;;;5.20;;
78120;SDS011;67585;44.802;10.332;2024-03-08T02:48:03;20.40;;;6.20;;
78120;SDS011;67585;44.802;10.332;2024-03-08T02:50:31;20.65;;;5.00;;
78120;SDS011;67585;44.802;10.332;2024-03-08T02:52:57;15.00;;;5.30;;
78120;SDS011;67585;44.802;10.332;2024-03-08T02:55:22;16.20;;;6.63;;
78120;SDS011;67585;44.802;10.332;2024-03-08T02:57:50;16.05;;;5.28;;
78120;SDS011;67585;44.802;10.332;2024-03-08T03:00:16;16.88;;;5.82;;
78120;SDS011;67585;44.802;10.332;2024-03-08T03:02:44;19.48;;;6.15;;
78120;SDS011;67585;44.802;10.332;2024-03-08T03:05:10;17.58;;;7.20;;
78120;SDS011;67585;44.802;10.332;2024-03-08T03:07:36;21.60;;;7.70;;
78120;SDS011;67585;44.802;10.332;2024-03-08T03:10:02;17.45;;;6.88;;
78120;SDS011;67585;44.802;10.332;2024-03-08T03:12:28;21.85;;;7.50;;
78120;SDS011;67585;44.802;10.332;2024-03-08T03:14:54;19.67;;;8.35;;
78120;SDS011;67585;44.802;10.332;2024-03-08T03:17:21;17.75;;;6.85;;
78120;SDS011;67585;44.802;10.332;2024-03-08T03:19:50;22.30;;;8.07;;
78120;SDS011;67585;44.802;10.332;2024-03-08T03:22:19;21.10;;;7.65;;
78120;SDS011;67585;44.802;10.332;2024-03-08T03:24:45;22.48;;;8.25;;
78120;SDS011;67585;44.802;10.332;2024-03-08T03:27:14;26.13;;;7.80;;
78120;SDS011;67585;44.802;10.332;2024-03-08T03:29:40;21.80;;;8.77;;
78120;SDS011;67585;44.802;10.332;2024-03-08T03:32:11;23.98;;;8.23;;
78120;SDS011;67585;44.802;10.332;2024-03-08T03:34:37;31.85;;;8.68;;
78120;SDS011;67585;44.802;10.332;2024-03-08T03:37:06;25.48;;;7.53;;
78120;SDS011;67585;44.802;10.332;2024-03-08T03:39:33;27.52;;;7.45;;
78120;SDS011;67585;44.802;10.332;2024-03-08T03:42:02;19.38;;;8.38;;
78120;SDS011;67585;44.802;10.332;2024-03-08T03:44:28;26.80;;;8.55;;
78120;SDS011;67585;44.802;10.332;2024-03-08T03:46:54;25.52;;;9.82;;
78120;SDS011;67585;44.802;10.332;2024-03-08T03:49:19;27.17;;;7.97;;
78120;SDS011;67585;44.802;10.332;2024-03-08T03:51:45;28.92;;;8.68;;
78120;SDS011;67585;44.802;10.332;2024-03-08T03:54:11;25.58;;;8.32;;
78120;SDS011;67585;44.802;10.332;2024-03-08T03:56:37;22.10;;;7.15;;
78120;SDS011;67585;44.802;10.332;2024-03-08T03:59:03;19.77;;;7.93;;
78120;SDS011;67585;44.802;10.332;2024-03-08T04:01:28;23.92;;;8.85;;
78120;SDS011;67585;44.802;10.332;2024-03-08T04:03:54;24.90;;;9.05;;
78120;SDS011;67585;44.802;10.332;2024-03-08T04:06:20;28.75;;;10.02;;
78120;SDS011;67585;44.802;10.332;2024-03-08T04:08:45;24.15;;;7.78;;
78120;SDS011;67585;44.802;10.332;2024-03-08T04:11:11;20.85;;;7.78;;
78120;SDS011;67585;44.802;10.332;2024-03-08T04:13:36;28.92;;;9.40;;
78120;SDS011;67585;44.802;10.332;2024-03-08T04:16:02;23.27;;;9.75;;
78120;SDS011;67585;44.802;10.332;2024-03-08T04:18:33;24.50;;;8.02;;
78120;SDS011;67585;44.802;10.332;2024-03-08T04:21:00;21.90;;;8.45;;
78120;SDS011;67585;44.802;10.332;2024-03-08T04:23:27;21.17;;;6.05;;
78120;SDS011;67585;44.802;10.332;2024-03-08T04:25:53;19.38;;;7.40;;
78120;SDS011;67585;44.802;10.332;2024-03-08T04:28:19;23.73;;;9.25;;
78120;SDS011;67585;44.802;10.332;2024-03-08T04:30:44;25.15;;;8.00;;
78120;SDS011;67585;44.802;10.332;2024-03-08T04:33:11;22.40;;;8.25;;
78120;SDS011;67585;44.802;10.332;2024-03-08T04:35:37;24.48;;;9.25;;
78120;SDS011;67585;44.802;10.332;2024-03-08T04:38:02;29.67;;;10.27;;
78120;SDS011;67585;44.802;10.332;2024-03-08T04:40:30;24.38;;;8.80;;
78120;SDS011;67585;44.802;10.332;2024-03-08T04:42:56;26.13;;;8.80;;
78120;SDS011;67585;44.802;10.332;2024-03-08T04:45:23;25.83;;;10.77;;
78120;SDS011;67585;44.802;10.332;2024-03-08T04:47:50;28.15;;;9.13;;
78120;SDS011;67585;44.802;10.332;2024-03-08T04:50:17;27.60;;;8.85;;
78120;SDS011;67585;44.802;10.332;2024-03-08T04:52:44;28.02;;;9.18;;
78120;SDS011;67585;44.802;10.332;2024-03-08T04:55:09;29.95;;;11.02;;
78120;SDS011;67585;44.802;10.332;2024-03-08T04:57:34;26.83;;;11.30;;
78120;SDS011;67585;44.802;10.332;2024-03-08T05:00:01;28.35;;;10.57;;
78120;SDS011;67585;44.802;10.332;2024-03-08T05:02:29;29.15;;;10.00;;
78120;SDS011;67585;44.802;10.332;2024-03-08T05:04:54;25.63;;;8.05;;
78120;SDS011;67585;44.802;10.332;2024-03-08T05:07:20;29.10;;;9.95;;
78120;SDS011;67585;44.802;10.332;2024-03-08T05:09:45;33.15;;;8.73;;
78120;SDS011;67585;44.802;10.332;2024-03-08T05:12:16;26.15;;;9.73;;
78120;SDS011;67585;44.802;10.332;2024-03-08T05:14:42;25.55;;;10.35;;
78120;SDS011;67585;44.802;10.332;2024-03-08T05:17:07;31.88;;;11.48;;
78120;SDS011;67585;44.802;10.332;2024-03-08T05:19:33;26.13;;;8.73;;
78120;SDS011;67585;44.802;10.332;2024-03-08T05:21:58;30.67;;;10.82;;
78120;SDS011;67585;44.802;10.332;2024-03-08T05:24:24;27.20;;;9.80;;
78120;SDS011;67585;44.802;10.332;2024-03-08T05:26:49;29.95;;;11.73;;
78120;SDS011;67585;44.802;10.332;2024-03-08T05:29:15;28.55;;;10.13;;
78120;SDS011;67585;44.802;10.332;2024-03-08T05:31:47;33.10;;;11.20;;
78120;SDS011;67585;44.802;10.332;2024-03-08T05:34:14;26.40;;;7.55;;
78120;SDS011;67585;44.802;10.332;2024-03-08T05:36:41;27.65;;;10.25;;
78120;SDS011;67585;44.802;10.332;2024-03-08T05:39:09;26.08;;;8.95;;
78120;SDS011;67585;44.802;10.332;2024-03-08T05:41:36;31.65;;;11.18;;
78120;SDS011;67585;44.802;10.332;2024-03-08T05:44:02;33.72;;;10.23;;
78120;SDS011;67585;44.802;10.332;2024-03-08T05:46:28;28.17;;;9.80;;
78120;SDS011;67585;44.802;10.332;2024-03-08T05:48:53;36.05;;;10.65;;
78120;SDS011;67585;44.802;10.332;2024-03-08T05:51:19;29.02;;;10.57;;
78120;SDS011;67585;44.802;10.332;2024-03-08T05:53:46;27.98;;;10.10;;
78120;SDS011;67585;44.802;10.332;2024-03-08T05:56:12;29.52;;;10.18;;
78120;SDS011;67585;44.802;10.332;2024-03-08T05:58:37;27.38;;;10.23;;
78120;SDS011;67585;44.802;10.332;2024-03-08T06:01:02;31.05;;;11.00;;
78120;SDS011;67585;44.802;10.332;2024-03-08T06:03:32;31.42;;;12.23;;
78120;SDS011;67585;44.802;10.332;2024-03-08T06:05:58;36.65;;;12.07;;
78120;SDS011;67585;44.802;10.332;2024-03-08T06:08:24;31.15;;;11.40;;
78120;SDS011;67585;44.802;10.332;2024-03-08T06:10:55;32.05;;;10.70;;
78120;SDS011;67585;44.802;10.332;2024-03-08T06:13:21;31.02;;;11.52;;
78120;SDS011;67585;44.802;10.332;2024-03-08T06:15:46;26.67;;;8.70;;
78120;SDS011;67585;44.802;10.332;2024-03-08T06:18:11;34.30;;;11.02;;
78120;SDS011;67585;44.802;10.332;2024-03-08T06:20:37;33.08;;;10.70;;
78120;SDS011;67585;44.802;10.332;2024-03-08T06:23:02;31.00;;;10.30;;
78120;SDS011;67585;44.802;10.332;2024-03-08T06:25:28;30.30;;;9.25;;
78120;SDS011;67585;44.802;10.332;2024-03-08T06:27:53;25.42;;;7.93;;
78120;SDS011;67585;44.802;10.332;2024-03-08T06:30:19;28.17;;;10.27;;
78120;SDS011;67585;44.802;10.332;2024-03-08T06:32:45;25.17;;;8.82;;
78120;SDS011;67585;44.802;10.332;2024-03-08T06:35:10;24.55;;;8.63;;
78120;SDS011;67585;44.802;10.332;2024-03-08T06:37:36;30.83;;;9.75;;
78120;SDS011;67585;44.802;10.332;2024-03-08T06:40:02;27.50;;;8.15;;
78120;SDS011;67585;44.802;10.332;2024-03-08T06:42:33;24.08;;;7.45;;
78120;SDS011;67585;44.802;10.332;2024-03-08T06:44:59;31.17;;;9.82;;
78120;SDS011;67585;44.802;10.332;2024-03-08T06:47:33;28.05;;;9.32;;
78120;SDS011;67585;44.802;10.332;2024-03-08T06:49:58;27.48;;;8.60;;
78120;SDS011;67585;44.802;10.332;2024-03-08T06:52:23;25.67;;;8.10;;
78120;SDS011;67585;44.802;10.332;2024-03-08T06:54:49;24.05;;;8.82;;
78120;SDS011;67585;44.802;10.332;2024-03-08T06:57:14;23.95;;;9.45;;
78120;SDS011;67585;44.802;10.332;2024-03-08T06:59:41;23.55;;;8.25;;
78120;SDS011;67585;44.802;10.332;2024-03-08T07:02:07;21.40;;;8.77;;
78120;SDS011;67585;44.802;10.332;2024-03-08T07:04:34;26.35;;;9.13;;
78120;SDS011;67585;44.802;10.332;2024-03-08T07:07:03;22.58;;;9.43;;
78120;SDS011;67585;44.802;10.332;2024-03-08T07:09:29;20.80;;;6.97;;
78120;SDS011;67585;44.802;10.332;2024-03-08T07:11:55;23.35;;;7.22;;
78120;SDS011;67585;44.802;10.332;2024-03-08T07:14:23;25.23;;;7.20;;
78120;SDS011;67585;44.802;10.332;2024-03-08T07:16:49;27.15;;;7.80;;
78120;SDS011;67585;44.802;10.332;2024-03-08T07:19:15;19.70;;;7.38;;
78120;SDS011;67585;44.802;10.332;2024-03-08T07:21:41;25.33;;;8.43;;
78120;SDS011;67585;44.802;10.332;2024-03-08T07:24:07;25.15;;;8.52;;
78120;SDS011;67585;44.802;10.332;2024-03-08T07:26:41;21.65;;;8.52;;
78120;SDS011;67585;44.802;10.332;2024-03-08T07:29:07;24.50;;;7.88;;
78120;SDS011;67585;44.802;10.332;2024-03-08T07:31:33;26.15;;;9.57;;
78120;SDS011;67585;44.802;10.332;2024-03-08T07:34:07;23.55;;;8.18;;
78120;SDS011;67585;44.802;10.332;2024-03-08T07:36:41;23.42;;;7.30;;
78120;SDS011;67585;44.802;10.332;2024-03-08T07:39:15;21.17;;;8.00;;
78120;SDS011;67585;44.802;10.332;2024-03-08T07:41:41;19.17;;;7.32;;
78120;SDS011;67585;44.802;10.332;2024-03-08T07:44:07;23.58;;;8.35;;
78120;SDS011;67585;44.802;10.332;2024-03-08T07:46:33;26.25;;;9.38;;
78120;SDS011;67585;44.802;10.332;2024-03-08T07:49:02;32.67;;;9.45;;
78120;SDS011;67585;44.802;10.332;2024-03-08T07:51:28;27.95;;;9.13;;
78120;SDS011;67585;44.802;10.332;2024-03-08T07:53:53;26.92;;;10.68;;
78120;SDS011;67585;44.802;10.332;2024-03-08T07:56:19;25.17;;;9.15;;
78120;SDS011;67585;44.802;10.332;2024-03-08T07:58:46;26.63;;;10.73;;
78120;SDS011;67585;44.802;10.332;2024-03-08T08:01:18;21.20;;;8.82;;
78120;SDS011;67585;44.802;10.332;2024-03-08T08:03:44;26.55;;;9.90;;
78120;SDS011;67585;44.802;10.332;2024-03-08T08:06:10;31.02;;;9.35;;
78120;SDS011;67585;44.802;10.332;2024-03-08T08:08:41;30.08;;;10.32;;
78120;SDS011;67585;44.802;10.332;2024-03-08T08:11:07;28.50;;;10.30;;
78120;SDS011;67585;44.802;10.332;2024-03-08T08:13:33;26.50;;;10.30;;
78120;SDS011;67585;44.802;10.332;2024-03-08T08:15:59;23.45;;;10.20;;
78120;SDS011;67585;44.802;10.332;2024-03-08T08:18:25;26.95;;;10.32;;
78120;SDS011;67585;44.802;10.332;2024-03-08T08:20:51;25.00;;;9.00;;
78120;SDS011;67585;44.802;10.332;2024-03-08T08:23:17;21.00;;;8.60;;
78120;SDS011;67585;44.802;10.332;2024-03-08T08:25:44;23.10;;;9.93;;
78120;SDS011;67585;44.802;10.332;2024-03-08T08:28:10;25.13;;;9.80;;
78120;SDS011;67585;44.802;10.332;2024-03-08T08:33:02;26.13;;;8.77;;
78120;SDS011;67585;44.802;10.332;2024-03-08T08:35:30;23.45;;;9.52;;
78120;SDS011;67585;44.802;10.332;2024-03-08T08:37:56;29.83;;;10.48;;
78120;SDS011;67585;44.802;10.332;2024-03-08T08:40:22;22.67;;;8.48;;
78120;SDS011;67585;44.802;10.332;2024-03-08T08:42:48;23.27;;;8.18;;
78120;SDS011;67585;44.802;10.332;2024-03-08T08:45:13;22.30;;;8.75;;
78120;SDS011;67585;44.802;10.332;2024-03-08T08:47:39;27.92;;;10.25;;
78120;SDS011;67585;44.802;10.332;2024-03-08T08:50:07;23.17;;;8.90;;
78120;SDS011;67585;44.802;10.332;2024-03-08T08:52:36;23.52;;;9.25;;
78120;SDS011;67585;44.802;10.332;2024-03-08T08:55:03;24.55;;;9.48;;
78120;SDS011;67585;44.802;10.332;2024-03-08T08:57:29;25.13;;;8.18;;
78120;SDS011;67585;44.802;10.332;2024-03-08T08:59:55;26.00;;;8.73;;
78120;SDS011;67585;44.802;10.332;2024-03-08T09:02:22;25.58;;;9.20;;
78120;SDS011;67585;44.802;10.332;2024-03-08T09:04:48;22.05;;;7.45;;
78120;SDS011;67585;44.802;10.332;2024-03-08T09:07:13;34.47;;;11.35;;
78120;SDS011;67585;44.802;10.332;2024-03-08T09:09:39;23.38;;;8.38;;
78120;SDS011;67585;44.802;10.332;2024-03-08T09:12:05;26.25;;;9.95;;
78120;SDS011;67585;44.802;10.332;2024-03-08T09:14:30;27.42;;;8.38;;
78120;SDS011;67585;44.802;10.332;2024-03-08T09:16:56;24.15;;;8.40;;
78120;SDS011;67585;44.802;10.332;2024-03-08T09:19:23;26.70;;;9.13;;
78120;SDS011;67585;44.802;10.332;2024-03-08T09:21:51;28.88;;;8.73;;
78120;SDS011;67585;44.802;10.332;2024-03-08T09:24:16;25.55;;;9.85;;
78120;SDS011;67585;44.802;10.332;2024-03-08T09:26:42;22.08;;;7.25;;
78120;SDS011;67585;44.802;10.332;2024-03-08T09:29:08;22.20;;;8.23;;
78120;SDS011;67585;44.802;10.332;2024-03-08T09:31:35;26.35;;;7.10;;
78120;SDS011;67585;44.802;10.332;2024-03-08T09:36:28;16.02;;;5.97;;
78120;SDS011;67585;44.802;10.332;2024-03-08T09:38:53;17.50;;;6.88;;
78120;SDS011;67585;44.802;10.332;2024-03-08T09:41:19;17.15;;;6.07;;
78120;SDS011;67585;44.802;10.332;2024-03-08T09:43:45;14.55;;;5.75;;
78120;SDS011;67585;44.802;10.332;2024-03-08T09:46:11;14.02;;;5.20;;
78120;SDS011;67585;44.802;10.332;2024-03-08T09:48:39;14.18;;;5.80;;
78120;SDS011;67585;44.802;10.332;2024-03-08T09:53:32;15.30;;;5.82;;
78120;SDS011;67585;44.802;10.332;2024-03-08T09:55:58;16.48;;;6.45;;
78120;SDS011;67585;44.802;10.332;2024-03-08T09:58:24;16.58;;;7.28;;
78120;SDS011;67585;44.802;10.332;2024-03-08T10:00:52;20.25;;;6.82;;
78120;SDS011;67585;44.802;10.332;2024-03-08T10:03:19;19.17;;;6.13;;
78120;SDS011;67585;44.802;10.332;2024-03-08T10:05:45;17.05;;;5.97;;
78120;SDS011;67585;44.802;10.332;2024-03-08T10:08:11;18.20;;;7.13;;
78120;SDS011;67585;44.802;10.332;2024-03-08T10:10:38;16.33;;;6.05;;
78120;SDS011;67585;44.802;10.332;2024-03-08T10:13:06;13.82;;;6.10;;
78120;SDS011;67585;44.802;10.332;2024-03-08T10:15:37;16.40;;;6.22;;
78120;SDS011;67585;44.802;10.332;2024-03-08T10:18:05;14.27;;;5.47;;
78120;SDS011;67585;44.802;10.332;2024-03-08T10:20:33;19.75;;;4.55;;
78120;SDS011;67585;44.802;10.332;2024-03-08T10:22:59;14.63;;;5.43;;
78120;SDS011;67585;44.802;10.332;2024-03-08T10:25:25;14.18;;;5.47;;
78120;SDS011;67585;44.802;10.332;2024-03-08T10:27:51;16.77;;;6.03;;
78120;SDS011;67585;44.802;10.332;2024-03-08T10:30:17;16.90;;;5.80;;
78120;SDS011;67585;44.802;10.332;2024-03-08T10:32:46;17.77;;;4.72;;
78120;SDS011;67585;44.802;10.332;2024-03-08T10:35:13;15.70;;;4.40;;
78120;SDS011;67585;44.802;10.332;2024-03-08T10:37:46;17.33;;;4.35;;
78120;SDS011;67585;44.802;10.332;2024-03-08T10:40:23;14.07;;;5.07;;
78120;SDS011;67585;44.802;10.332;2024-03-08T10:42:56;13.80;;;3.92;;
78120;SDS011;67585;44.802;10.332;2024-03-08T10:48:01;14.02;;;4.65;;
78120;SDS011;67585;44.802;10.332;2024-03-08T10:50:34;15.77;;;5.78;;
78120;SDS011;67585;44.802;10.332;2024-03-08T10:53:00;18.27;;;6.93;;
78120;SDS011;67585;44.802;10.332;2024-03-08T10:55:28;14.70;;;4.60;;
78120;SDS011;67585;44.802;10.332;2024-03-08T10:57:53;17.70;;;5.30;;
78120;SDS011;67585;44.802;10.332;2024-03-08T11:00:22;14.25;;;5.47;;
78120;SDS011;67585;44.802;10.332;2024-03-08T11:02:52;12.60;;;4.93;;
78120;SDS011;67585;44.802;10.332;2024-03-08T11:10:48;12.18;;;4.97;;
78120;SDS011;67585;44.802;10.332;2024-03-08T11:13:38;18.05;;;4.20;;
78120;SDS011;67585;44.802;10.332;2024-03-08T11:16:10;15.82;;;5.72;;
78120;SDS011;67585;44.802;10.332;2024-03-08T11:18:37;14.20;;;5.53;;
78120;SDS011;67585;44.802;10.332;2024-03-08T11:21:03;10.23;;;4.15;;
78120;SDS011;67585;44.802;10.332;2024-03-08T11:23:32;12.32;;;5.25;;
78120;SDS011;67585;44.802;10.332;2024-03-08T11:25:58;13.02;;;4.72;;
78120;SDS011;67585;44.802;10.332;2024-03-08T11:28:25;16.02;;;5.25;;
78120;SDS011;67585;44.802;10.332;2024-03-08T11:33:27;11.48;;;4.70;;
78120;SDS011;67585;44.802;10.332;2024-03-08T11:36:03;20.73;;;4.28;;
78120;SDS011;67585;44.802;10.332;2024-03-08T11:38:45;12.73;;;4.40;;
78120;SDS011;67585;44.802;10.332;2024-03-08T11:41:14;16.20;;;4.85;;
78120;SDS011;67585;44.802;10.332;2024-03-08T11:43:43;11.18;;;3.17;;
78120;SDS011;67585;44.802;10.332;2024-03-08T11:46:09;11.52;;;4.90;;
78120;SDS011;67585;44.802;10.332;2024-03-08T11:48:41;10.52;;;4.10;;
78120;SDS011;67585;44.802;10.332;2024-03-08T11:51:14;10.38;;;5.13;;
78120;SDS011;67585;44.802;10.332;2024-03-08T11:53:43;12.48;;;3.92;;
78120;SDS011;67585;44.802;10.332;2024-03-08T11:56:12;11.95;;;4.68;;
78120;SDS011;67585;44.802;10.332;2024-03-08T11:58:39;10.38;;;3.45;;
78120;SDS011;67585;44.802;10.332;2024-03-08T12:01:06;8.48;;;4.35;;
78120;SDS011;67585;44.802;10.332;2024-03-08T12:03:34;8.60;;;4.38;;
78120;SDS011;67585;44.802;10.332;2024-03-08T12:06:00;8.80;;;3.28;;
78120;SDS011;67585;44.802;10.332;2024-03-08T12:08:27;8.63;;;4.68;;
78120;SDS011;67585;44.802;10.332;2024-03-08T12:10:53;9.88;;;4.00;;
78120;SDS011;67585;44.802;10.332;2024-03-08T12:13:24;11.75;;;4.32;;
78120;SDS011;67585;44.802;10.332;2024-03-08T12:15:57;10.52;;;3.15;;
78120;SDS011;67585;44.802;10.332;2024-03-08T12:18:27;9.38;;;3.72;;
78120;SDS011;67585;44.802;10.332;2024-03-08T12:21:05;10.10;;;5.10;;
78120;SDS011;67585;44.802;10.332;2024-03-08T12:23:42;9.13;;;3.63;;
78120;SDS011;67585;44.802;10.332;2024-03-08T12:26:14;9.90;;;3.38;;
78120;SDS011;67585;44.802;10.332;2024-03-08T12:31:13;13.48;;;3.63;;
78120;SDS011;67585;44.802;10.332;2024-03-08T12:33:54;9.10;;;3.20;;
78120;SDS011;67585;44.802;10.332;2024-03-08T12:36:24;12.07;;;4.90;;
78120;SDS011;67585;44.802;10.332;2024-03-08T12:38:50;14.00;;;4.00;;
78120;SDS011;67585;44.802;10.332;2024-03-08T12:41:16;8.05;;;3.70;;
78120;SDS011;67585;44.802;10.332;2024-03-08T12:46:15;7.82;;;2.17;;
78120;SDS011;67585;44.802;10.332;2024-03-08T12:48:41;8.75;;;2.95;;
78120;SDS011;67585;44.802;10.332;2024-03-08T12:51:10;7.88;;;3.33;;
78120;SDS011;67585;44.802;10.332;2024-03-08T12:53:36;10.50;;;3.92;;
78120;SDS011;67585;44.802;10.332;2024-03-08T12:56:01;13.18;;;3.28;;
78120;SDS011;67585;44.802;10.332;2024-03-08T12:58:29;9.93;;;4.38;;
78120;SDS011;67585;44.802;10.332;2024-03-08T13:00:56;9.13;;;2.47;;
78120;SDS011;67585;44.802;10.332;2024-03-08T13:03:24;10.77;;;3.47;;
78120;SDS011;67585;44.802;10.332;2024-03-08T13:05:50;9.98;;;3.42;;
78120;SDS011;67585;44.802;10.332;2024-03-08T13:08:15;11.15;;;3.63;;
78120;SDS011;67585;44.802;10.332;2024-03-08T13:13:10;10.68;;;3.33;;
78120;SDS011;67585;44.802;10.332;2024-03-08T13:15:37;12.13;;;4.70;;
78120;SDS011;67585;44.802;10.332;2024-03-08T13:18:02;9.27;;;4.05;;
78120;SDS011;67585;44.802;10.332;2024-03-08T13:20:28;13.35;;;4.18;;
78120;SDS011;67585;44.802;10.332;2024-03-08T13:22:54;10.95;;;4.53;;
78120;SDS011;67585;44.802;10.332;2024-03-08T13:25:21;8.75;;;3.40;;
78120;SDS011;67585;44.802;10.332;2024-03-08T13:27:46;9.95;;;3.65;;
78120;SDS011;67585;44.802;10.332;2024-03-08T13:30:14;9.30;;;2.58;;
78120;SDS011;67585;44.802;10.332;2024-03-08T13:32:43;11.77;;;5.57;;
78120;SDS011;67585;44.802;10.332;2024-03-08T13:35:09;9.82;;;3.00;;
78120;SDS011;67585;44.802;10.332;2024-03-08T13:37:40;8.32;;;3.00;;
78120;SDS011;67585;44.802;10.332;2024-03-08T13:40:07;9.75;;;4.75;;
78120;SDS011;67585;44.802;10.332;2024-03-08T13:42:38;10.23;;;3.15;;
78120;SDS011;67585;44.802;10.332;2024-03-08T13:45:08;10.93;;;3.90;;
78120;SDS011;67585;44.802;10.332;2024-03-08T13:47:43;11.27;;;4.03;;
78120;SDS011;67585;44.802;10.332;2024-03-08T13:50:09;9.90;;;4.82;;
78120;SDS011;67585;44.802;10.332;2024-03-08T13:52:43;12.52;;;4.13;;
78120;SDS011;67585;44.802;10.332;2024-03-08T13:55:09;11.70;;;4.47;;
78120;SDS011;67585;44.802;10.332;2024-03-08T13:57:38;11.55;;;4.75;;
78120;SDS011;67585;44.802;10.332;2024-03-08T14:00:27;10.13;;;4.13;;
78120;SDS011;67585;44.802;10.332;2024-03-08T14:02:58;11.43;;;3.08;;
78120;SDS011;67585;44.802;10.332;2024-03-08T14:05:24;14.80;;;4.72;;
78120;SDS011;67585;44.802;10.332;2024-03-08T14:07:49;10.05;;;4.82;;
78120;SDS011;67585;44.802;10.332;2024-03-08T14:10:15;12.95;;;4.78;;
78120;SDS011;67585;44.802;10.332;2024-03-08T14:12:40;12.02;;;4.38;;
78120;SDS011;67585;44.802;10.332;2024-03-08T14:15:09;11.73;;;5.75;;
78120;SDS011;67585;44.802;10.332;2024-03-08T14:17:37;9.98;;;3.97;;
78120;SDS011;67585;44.802;10.332;2024-03-08T14:20:03;12.98;;;3.72;;
78120;SDS011;67585;44.802;10.332;2024-03-08T14:22:29;12.15;;;3.88;;
78120;SDS011;67585;44.802;10.332;2024-03-08T14:25:00;10.73;;;4.32;;
78120;SDS011;67585;44.802;10.332;2024-03-08T14:27:25;12.02;;;5.72;;
78120;SDS011;67585;44.802;10.332;2024-03-08T14:30:01;11.43;;;4.15;;
78120;SDS011;67585;44.802;10.332;2024-03-08T14:32:26;10.48;;;4.05;;
78120;SDS011;67585;44.802;10.332;2024-03-08T14:34:53;12.35;;;5.20;;
78120;SDS011;67585;44.802;10.332;2024-03-08T14:37:20;14.43;;;5.43;;
78120;SDS011;67585;44.802;10.332;2024-03-08T14:39:48;11.55;;;4.93;;
78120;SDS011;67585;44.802;10.332;2024-03-08T14:42:13;11.50;;;4.13;;
78120;SDS011;67585;44.802;10.332;2024-03-08T14:44:42;11.65;;;4.97;;
78120;SDS011;67585;44.802;10.332;2024-03-08T14:47:13;11.32;;;4.95;;
78120;SDS011;67585;44.802;10.332;2024-03-08T14:49:39;12.25;;;5.78;;